Arverne, NY

1:14 PM EDT on May 29, 2015 (GMT -0400)
Howard Beach | | Change Station
CLOSE
Current Station
Personal Weather Station
Location: Queens, NY
Elevation: 7 ft
Nearby Weather Stations

Elev 7 ft 40.66 °N, 73.84 °W | Updated 59 seconds ago

Partly Cloudy
Partly Cloudy
77.5 °F
Feels Like 79 °F
N
5.0
Wind Variable Wind from SSE

Today
High -- | Low -- °F
--% Chance of Precip.
Yesterday
High -- | Low -- °F
Precip. -- in
5:28 AM 8:17 PM
Waxing Gibbous, 85% visible
Pressure 30.29 in
Visibility 10.0 miles
Clouds Few 6000 ft
Scattered Clouds 25000 ft
Heat Index 79 °F
Dew Point 61 °F
Humidity 56%
Rainfall -999.00 in
Snow Depth Not available.
UV 9 out of 12
Pollen 7.70 out of 12
Air Quality Not available.
Flu Activity Widespread
METAR KJFK 291651Z 14011KT 10SM FEW060 SCT250 26/12 A3029 RMK AO2 SLP256 T02560122

More Conditions Fewer Conditions

Pressure 30.29 in
Visibility 10.0 miles
Clouds Few 6000 ft
Scattered Clouds 25000 ft
Heat Index 79 °F
Dew Point 61 °F
Humidity 56%
Rainfall -999.00 in
Snow Depth Not available.
UV 9 out of 12
Pollen 7.70 out of 12
Air Quality Not available.
Flu Activity Widespread
METAR KJFK 291651Z 14011KT 10SM FEW060 SCT250 26/12 A3029 RMK AO2 SLP256 T02560122

More Conditions Fewer Conditions

10-Day Weather Forecast

Almanac

Astronomy

May. 29, 2015 Rise Set
Actual Time
Civil Twilight
Nautical Twilight
Astronomical Twilight
Moon
Length of Visible Light
Length of Day
Tomorrow will be .
, % of the Moon is Illuminated

Today's Extremes

State Highs State Lows

Community

WunderPhotos

Upload Photos

1,825,305 photos uploaded!

WunderBlogs® & News

Nearby

Air Quality

  Air Quality AQ Index Pollutant
Not available.

Snow Depth

Station Depth Elevation

Earthquake Activity

City Distance Mag. Time & Date
Minimum magnitude displayed is 2.5.

Coastal Water Temperatures

Place Temperature

Stations

Nearby Weather Stations

Station Location Temp. Windchill Dew Point Humidity Wind Precip. Elev Updated Type